sensor_id;sensor_type;location;lat;lon;timestamp;P1;durP1;ratioP1;P2;durP2;ratioP2
19798;SDS011;10059;59.850;10.454;2023-07-20T00:00:55;0.30;;;0.10;;
19798;SDS011;10059;59.850;10.454;2023-07-20T00:03:22;0.17;;;0.17;;
19798;SDS011;10059;59.850;10.454;2023-07-20T00:05:50;2.10;;;0.17;;
19798;SDS011;10059;59.850;10.454;2023-07-20T00:08:17;1.70;;;0.27;;
19798;SDS011;10059;59.850;10.454;2023-07-20T00:10:44;0.67;;;0.20;;
19798;SDS011;10059;59.850;10.454;2023-07-20T00:13:11;1.33;;;0.10;;
19798;SDS011;10059;59.850;10.454;2023-07-20T00:15:39;0.57;;;0.17;;
19798;SDS011;10059;59.850;10.454;2023-07-20T00:18:06;0.23;;;0.13;;
19798;SDS011;10059;59.850;10.454;2023-07-20T00:20:33;0.30;;;0.20;;
19798;SDS011;10059;59.850;10.454;2023-07-20T00:23:00;0.30;;;0.20;;
19798;SDS011;10059;59.850;10.454;2023-07-20T00:25:27;1.20;;;0.20;;
19798;SDS011;10059;59.850;10.454;2023-07-20T00:27:54;3.40;;;0.20;;
19798;SDS011;10059;59.850;10.454;2023-07-20T00:30:20;0.10;;;0.10;;
19798;SDS011;10059;59.850;10.454;2023-07-20T00:32:49;0.10;;;0.10;;
19798;SDS011;10059;59.850;10.454;2023-07-20T00:35:15;0.30;;;0.10;;
19798;SDS011;10059;59.850;10.454;2023-07-20T00:37:42;1.63;;;0.20;;
19798;SDS011;10059;59.850;10.454;2023-07-20T00:40:09;0.13;;;0.10;;
19798;SDS011;10059;59.850;10.454;2023-07-20T00:42:36;0.63;;;0.20;;
19798;SDS011;10059;59.850;10.454;2023-07-20T00:45:03;0.20;;;0.20;;
19798;SDS011;10059;59.850;10.454;2023-07-20T00:47:31;1.07;;;0.20;;
19798;SDS011;10059;59.850;10.454;2023-07-20T00:50:00;0.50;;;0.20;;
19798;SDS011;10059;59.850;10.454;2023-07-20T00:52:28;0.80;;;0.20;;
19798;SDS011;10059;59.850;10.454;2023-07-20T00:54:55;1.50;;;0.13;;
19798;SDS011;10059;59.850;10.454;2023-07-20T00:57:23;1.33;;;0.20;;
19798;SDS011;10059;59.850;10.454;2023-07-20T00:59:51;0.20;;;0.20;;
19798;SDS011;10059;59.850;10.454;2023-07-20T01:02:18;0.93;;;0.20;;
19798;SDS011;10059;59.850;10.454;2023-07-20T01:04:45;0.20;;;0.20;;
19798;SDS011;10059;59.850;10.454;2023-07-20T01:07:14;0.63;;;0.20;;
19798;SDS011;10059;59.850;10.454;2023-07-20T01:09:51;1.20;;;0.30;;
19798;SDS011;10059;59.850;10.454;2023-07-20T01:12:25;0.20;;;0.20;;
19798;SDS011;10059;59.850;10.454;2023-07-20T01:14:56;1.27;;;0.30;;
19798;SDS011;10059;59.850;10.454;2023-07-20T01:17:23;0.33;;;0.30;;
19798;SDS011;10059;59.850;10.454;2023-07-20T01:19:50;0.80;;;0.30;;
19798;SDS011;10059;59.850;10.454;2023-07-20T01:22:21;0.20;;;0.20;;
19798;SDS011;10059;59.850;10.454;2023-07-20T01:25:08;0.60;;;0.20;;
19798;SDS011;10059;59.850;10.454;2023-07-20T01:27:59;0.40;;;0.30;;
19798;SDS011;10059;59.850;10.454;2023-07-20T01:30:43;0.20;;;0.20;;
19798;SDS011;10059;59.850;10.454;2023-07-20T01:33:18;0.30;;;0.30;;
19798;SDS011;10059;59.850;10.454;2023-07-20T01:35:48;0.53;;;0.30;;
19798;SDS011;10059;59.850;10.454;2023-07-20T01:38:23;1.17;;;0.30;;
19798;SDS011;10059;59.850;10.454;2023-07-20T01:40:51;0.30;;;0.20;;
19798;SDS011;10059;59.850;10.454;2023-07-20T01:43:18;2.33;;;0.20;;
19798;SDS011;10059;59.850;10.454;2023-07-20T01:45:45;0.23;;;0.23;;
19798;SDS011;10059;59.850;10.454;2023-07-20T01:48:11;0.20;;;0.20;;
19798;SDS011;10059;59.850;10.454;2023-07-20T01:50:40;0.30;;;0.30;;
19798;SDS011;10059;59.850;10.454;2023-07-20T01:53:06;0.47;;;0.27;;
19798;SDS011;10059;59.850;10.454;2023-07-20T01:55:34;0.83;;;0.30;;
19798;SDS011;10059;59.850;10.454;2023-07-20T01:58:01;0.17;;;0.17;;
19798;SDS011;10059;59.850;10.454;2023-07-20T02:00:28;0.73;;;0.20;;
19798;SDS011;10059;59.850;10.454;2023-07-20T02:02:55;0.87;;;0.20;;
19798;SDS011;10059;59.850;10.454;2023-07-20T02:05:22;0.20;;;0.20;;
19798;SDS011;10059;59.850;10.454;2023-07-20T02:07:51;1.27;;;0.20;;
19798;SDS011;10059;59.850;10.454;2023-07-20T02:10:17;0.23;;;0.23;;
19798;SDS011;10059;59.850;10.454;2023-07-20T02:12:44;1.03;;;0.33;;
19798;SDS011;10059;59.850;10.454;2023-07-20T02:15:11;0.47;;;0.30;;
19798;SDS011;10059;59.850;10.454;2023-07-20T02:17:39;0.63;;;0.30;;
19798;SDS011;10059;59.850;10.454;2023-07-20T02:20:07;1.70;;;0.30;;
19798;SDS011;10059;59.850;10.454;2023-07-20T02:22:35;1.40;;;0.40;;
19798;SDS011;10059;59.850;10.454;2023-07-20T02:25:04;0.30;;;0.20;;
19798;SDS011;10059;59.850;10.454;2023-07-20T02:27:32;0.60;;;0.30;;
19798;SDS011;10059;59.850;10.454;2023-07-20T02:29:59;0.37;;;0.20;;
19798;SDS011;10059;59.850;10.454;2023-07-20T02:32:25;0.50;;;0.20;;
19798;SDS011;10059;59.850;10.454;2023-07-20T02:34:52;0.27;;;0.20;;
19798;SDS011;10059;59.850;10.454;2023-07-20T02:37:19;0.87;;;0.20;;
19798;SDS011;10059;59.850;10.454;2023-07-20T02:39:46;0.80;;;0.20;;
19798;SDS011;10059;59.850;10.454;2023-07-20T02:42:14;0.10;;;0.10;;
19798;SDS011;10059;59.850;10.454;2023-07-20T02:44:41;1.40;;;0.20;;
19798;SDS011;10059;59.850;10.454;2023-07-20T02:47:08;1.30;;;0.30;;
19798;SDS011;10059;59.850;10.454;2023-07-20T02:49:35;0.40;;;0.20;;
19798;SDS011;10059;59.850;10.454;2023-07-20T02:52:02;0.10;;;0.10;;
19798;SDS011;10059;59.850;10.454;2023-07-20T02:54:29;2.60;;;0.30;;
19798;SDS011;10059;59.850;10.454;2023-07-20T02:56:56;0.93;;;0.20;;
19798;SDS011;10059;59.850;10.454;2023-07-20T02:59:24;0.60;;;0.30;;
19798;SDS011;10059;59.850;10.454;2023-07-20T03:01:51;0.20;;;0.20;;
19798;SDS011;10059;59.850;10.454;2023-07-20T03:04:19;0.13;;;0.13;;
19798;SDS011;10059;59.850;10.454;2023-07-20T03:06:46;0.30;;;0.20;;
19798;SDS011;10059;59.850;10.454;2023-07-20T03:09:13;0.40;;;0.23;;
19798;SDS011;10059;59.850;10.454;2023-07-20T03:11:40;0.30;;;0.30;;
19798;SDS011;10059;59.850;10.454;2023-07-20T03:14:07;1.60;;;0.30;;
19798;SDS011;10059;59.850;10.454;2023-07-20T03:16:37;0.40;;;0.20;;
19798;SDS011;10059;59.850;10.454;2023-07-20T03:19:04;0.40;;;0.30;;
19798;SDS011;10059;59.850;10.454;2023-07-20T03:21:30;0.20;;;0.20;;
19798;SDS011;10059;59.850;10.454;2023-07-20T03:23:57;2.23;;;0.30;;
19798;SDS011;10059;59.850;10.454;2023-07-20T03:26:24;2.40;;;0.20;;
19798;SDS011;10059;59.850;10.454;2023-07-20T03:28:51;1.63;;;0.20;;
19798;SDS011;10059;59.850;10.454;2023-07-20T03:31:18;0.83;;;0.20;;
19798;SDS011;10059;59.850;10.454;2023-07-20T03:33:46;1.80;;;0.20;;
19798;SDS011;10059;59.850;10.454;2023-07-20T03:36:13;0.20;;;0.17;;
19798;SDS011;10059;59.850;10.454;2023-07-20T03:38:40;0.40;;;0.30;;
19798;SDS011;10059;59.850;10.454;2023-07-20T03:41:06;0.87;;;0.20;;
19798;SDS011;10059;59.850;10.454;2023-07-20T03:43:34;0.97;;;0.30;;
19798;SDS011;10059;59.850;10.454;2023-07-20T03:46:01;1.27;;;0.20;;
19798;SDS011;10059;59.850;10.454;2023-07-20T03:48:32;0.53;;;0.20;;
19798;SDS011;10059;59.850;10.454;2023-07-20T03:51:00;0.17;;;0.17;;
19798;SDS011;10059;59.850;10.454;2023-07-20T03:53:27;1.33;;;0.10;;
19798;SDS011;10059;59.850;10.454;2023-07-20T03:55:54;8.03;;;0.20;;
19798;SDS011;10059;59.850;10.454;2023-07-20T03:58:21;0.13;;;0.13;;
19798;SDS011;10059;59.850;10.454;2023-07-20T04:00:48;0.37;;;0.10;;
19798;SDS011;10059;59.850;10.454;2023-07-20T04:03:16;1.50;;;0.00;;
19798;SDS011;10059;59.850;10.454;2023-07-20T04:05:44;1.43;;;0.13;;
19798;SDS011;10059;59.850;10.454;2023-07-20T04:08:12;1.03;;;0.10;;
19798;SDS011;10059;59.850;10.454;2023-07-20T04:10:39;1.80;;;0.10;;
19798;SDS011;10059;59.850;10.454;2023-07-20T04:13:10;0.30;;;0.10;;
19798;SDS011;10059;59.850;10.454;2023-07-20T04:15:36;0.10;;;0.10;;
19798;SDS011;10059;59.850;10.454;2023-07-20T04:18:03;1.23;;;0.10;;
19798;SDS011;10059;59.850;10.454;2023-07-20T04:20:30;0.10;;;0.10;;
19798;SDS011;10059;59.850;10.454;2023-07-20T04:22:57;0.07;;;0.07;;
19798;SDS011;10059;59.850;10.454;2023-07-20T04:25:25;0.00;;;0.00;;
19798;SDS011;10059;59.850;10.454;2023-07-20T04:27:52;0.30;;;0.00;;
19798;SDS011;10059;59.850;10.454;2023-07-20T04:30:19;0.93;;;0.10;;
19798;SDS011;10059;59.850;10.454;2023-07-20T04:32:47;0.10;;;0.10;;
19798;SDS011;10059;59.850;10.454;2023-07-20T04:35:17;0.10;;;0.10;;
19798;SDS011;10059;59.850;10.454;2023-07-20T04:38:04;0.00;;;0.00;;
19798;SDS011;10059;59.850;10.454;2023-07-20T04:40:32;0.00;;;0.00;;
19798;SDS011;10059;59.850;10.454;2023-07-20T04:42:59;0.00;;;0.00;;
19798;SDS011;10059;59.850;10.454;2023-07-20T04:45:26;0.60;;;0.07;;
19798;SDS011;10059;59.850;10.454;2023-07-20T04:47:52;1.23;;;0.07;;
19798;SDS011;10059;59.850;10.454;2023-07-20T04:50:19;0.30;;;0.03;;
19798;SDS011;10059;59.850;10.454;2023-07-20T04:52:46;0.00;;;0.00;;
19798;SDS011;10059;59.850;10.454;2023-07-20T04:55:13;2.30;;;0.03;;
19798;SDS011;10059;59.850;10.454;2023-07-20T04:57:41;0.00;;;0.00;;
19798;SDS011;10059;59.850;10.454;2023-07-20T05:00:08;0.00;;;0.00;;
19798;SDS011;10059;59.850;10.454;2023-07-20T05:02:38;0.00;;;0.00;;
19798;SDS011;10059;59.850;10.454;2023-07-20T05:05:05;0.00;;;0.00;;
19798;SDS011;10059;59.850;10.454;2023-07-20T05:07:32;1.50;;;0.00;;
19798;SDS011;10059;59.850;10.454;2023-07-20T05:09:59;0.50;;;0.10;;
19798;SDS011;10059;59.850;10.454;2023-07-20T05:12:26;0.07;;;0.03;;
19798;SDS011;10059;59.850;10.454;2023-07-20T05:14:54;1.30;;;0.03;;
19798;SDS011;10059;59.850;10.454;2023-07-20T05:17:21;0.00;;;0.00;;
19798;SDS011;10059;59.850;10.454;2023-07-20T05:19:48;1.00;;;0.30;;
19798;SDS011;10059;59.850;10.454;2023-07-20T05:22:14;1.30;;;0.10;;
19798;SDS011;10059;59.850;10.454;2023-07-20T05:24:41;0.00;;;0.00;;
19798;SDS011;10059;59.850;10.454;2023-07-20T05:27:08;0.00;;;0.00;;
19798;SDS011;10059;59.850;10.454;2023-07-20T05:29:35;0.00;;;0.00;;
19798;SDS011;10059;59.850;10.454;2023-07-20T05:32:03;0.93;;;0.00;;
19798;SDS011;10059;59.850;10.454;2023-07-20T05:34:31;1.40;;;0.00;;
19798;SDS011;10059;59.850;10.454;2023-07-20T05:36:58;0.10;;;0.00;;
19798;SDS011;10059;59.850;10.454;2023-07-20T05:39:25;0.07;;;0.00;;
19798;SDS011;10059;59.850;10.454;2023-07-20T05:41:52;0.00;;;0.00;;
19798;SDS011;10059;59.850;10.454;2023-07-20T05:44:18;0.10;;;0.00;;
19798;SDS011;10059;59.850;10.454;2023-07-20T05:46:45;2.13;;;0.00;;
19798;SDS011;10059;59.850;10.454;2023-07-20T05:49:13;0.20;;;0.00;;
19798;SDS011;10059;59.850;10.454;2023-07-20T05:51:40;0.00;;;0.00;;
19798;SDS011;10059;59.850;10.454;2023-07-20T05:54:07;0.00;;;0.00;;
19798;SDS011;10059;59.850;10.454;2023-07-20T05:56:34;0.00;;;0.00;;
19798;SDS011;10059;59.850;10.454;2023-07-20T05:59:00;0.03;;;0.00;;
19798;SDS011;10059;59.850;10.454;2023-07-20T06:01:27;0.00;;;0.00;;
19798;SDS011;10059;59.850;10.454;2023-07-20T06:03:54;0.37;;;0.00;;
19798;SDS011;10059;59.850;10.454;2023-07-20T06:06:22;0.00;;;0.00;;
19798;SDS011;10059;59.850;10.454;2023-07-20T06:08:49;0.00;;;0.00;;
19798;SDS011;10059;59.850;10.454;2023-07-20T06:11:16;0.00;;;0.00;;
19798;SDS011;10059;59.850;10.454;2023-07-20T06:13:43;0.67;;;0.00;;
19798;SDS011;10059;59.850;10.454;2023-07-20T06:16:10;0.10;;;0.00;;
19798;SDS011;10059;59.850;10.454;2023-07-20T06:18:36;1.60;;;0.00;;
19798;SDS011;10059;59.850;10.454;2023-07-20T06:21:03;0.00;;;0.00;;
19798;SDS011;10059;59.850;10.454;2023-07-20T06:23:31;2.10;;;0.07;;
19798;SDS011;10059;59.850;10.454;2023-07-20T06:25:58;0.00;;;0.00;;
19798;SDS011;10059;59.850;10.454;2023-07-20T06:28:25;0.00;;;0.00;;
19798;SDS011;10059;59.850;10.454;2023-07-20T06:30:52;0.00;;;0.00;;
19798;SDS011;10059;59.850;10.454;2023-07-20T06:33:24;0.10;;;0.00;;
19798;SDS011;10059;59.850;10.454;2023-07-20T06:35:51;0.23;;;0.03;;
19798;SDS011;10059;59.850;10.454;2023-07-20T06:38:19;0.00;;;0.00;;
19798;SDS011;10059;59.850;10.454;2023-07-20T06:40:47;0.13;;;0.00;;
19798;SDS011;10059;59.850;10.454;2023-07-20T06:43:14;0.00;;;0.00;;
19798;SDS011;10059;59.850;10.454;2023-07-20T06:45:41;0.00;;;0.00;;
19798;SDS011;10059;59.850;10.454;2023-07-20T06:48:08;1.80;;;0.00;;
19798;SDS011;10059;59.850;10.454;2023-07-20T06:50:35;0.23;;;0.00;;
19798;SDS011;10059;59.850;10.454;2023-07-20T06:53:02;0.00;;;0.00;;
19798;SDS011;10059;59.850;10.454;2023-07-20T06:55:29;0.10;;;0.00;;
19798;SDS011;10059;59.850;10.454;2023-07-20T06:57:57;0.00;;;0.00;;
19798;SDS011;10059;59.850;10.454;2023-07-20T07:00:24;0.00;;;0.00;;
19798;SDS011;10059;59.850;10.454;2023-07-20T07:02:51;0.00;;;0.00;;
19798;SDS011;10059;59.850;10.454;2023-07-20T07:05:18;0.80;;;0.00;;
19798;SDS011;10059;59.850;10.454;2023-07-20T07:07:44;1.17;;;0.00;;
19798;SDS011;10059;59.850;10.454;2023-07-20T07:10:11;0.00;;;0.00;;
19798;SDS011;10059;59.850;10.454;2023-07-20T07:12:38;0.00;;;0.00;;
19798;SDS011;10059;59.850;10.454;2023-07-20T07:15:08;0.00;;;0.00;;
19798;SDS011;10059;59.850;10.454;2023-07-20T07:17:36;0.17;;;0.00;;
19798;SDS011;10059;59.850;10.454;2023-07-20T07:20:03;0.10;;;0.00;;
19798;SDS011;10059;59.850;10.454;2023-07-20T07:22:32;0.00;;;0.00;;
19798;SDS011;10059;59.850;10.454;2023-07-20T07:24:59;0.10;;;0.00;;
19798;SDS011;10059;59.850;10.454;2023-07-20T07:27:26;0.00;;;0.00;;
19798;SDS011;10059;59.850;10.454;2023-07-20T07:29:53;0.20;;;0.00;;
19798;SDS011;10059;59.850;10.454;2023-07-20T07:32:21;0.00;;;0.00;;
19798;SDS011;10059;59.850;10.454;2023-07-20T07:34:48;0.00;;;0.00;;
19798;SDS011;10059;59.850;10.454;2023-07-20T07:37:15;0.17;;;0.00;;
19798;SDS011;10059;59.850;10.454;2023-07-20T07:39:42;0.00;;;0.00;;
19798;SDS011;10059;59.850;10.454;2023-07-20T07:42:09;0.00;;;0.00;;
19798;SDS011;10059;59.850;10.454;2023-07-20T07:44:35;1.20;;;0.00;;
19798;SDS011;10059;59.850;10.454;2023-07-20T07:47:02;0.00;;;0.00;;
19798;SDS011;10059;59.850;10.454;2023-07-20T07:49:31;0.00;;;0.00;;
19798;SDS011;10059;59.850;10.454;2023-07-20T07:51:57;0.00;;;0.00;;
19798;SDS011;10059;59.850;10.454;2023-07-20T07:54:27;0.73;;;0.00;;
19798;SDS011;10059;59.850;10.454;2023-07-20T07:56:54;0.03;;;0.00;;
19798;SDS011;10059;59.850;10.454;2023-07-20T07:59:21;0.77;;;0.10;;
19798;SDS011;10059;59.850;10.454;2023-07-20T08:01:47;0.00;;;0.00;;
19798;SDS011;10059;59.850;10.454;2023-07-20T08:04:14;0.37;;;0.00;;
19798;SDS011;10059;59.850;10.454;2023-07-20T08:06:43;0.00;;;0.00;;
19798;SDS011;10059;59.850;10.454;2023-07-20T08:09:10;0.10;;;0.00;;
19798;SDS011;10059;59.850;10.454;2023-07-20T08:11:38;0.00;;;0.00;;
19798;SDS011;10059;59.850;10.454;2023-07-20T08:14:05;0.00;;;0.00;;
19798;SDS011;10059;59.850;10.454;2023-07-20T08:16:32;0.60;;;0.10;;
19798;SDS011;10059;59.850;10.454;2023-07-20T08:18:59;0.17;;;0.00;;
19798;SDS011;10059;59.850;10.454;2023-07-20T08:21:27;0.20;;;0.00;;
19798;SDS011;10059;59.850;10.454;2023-07-20T08:23:55;0.30;;;0.00;;
19798;SDS011;10059;59.850;10.454;2023-07-20T08:26:22;0.00;;;0.00;;
19798;SDS011;10059;59.850;10.454;2023-07-20T08:28:49;0.00;;;0.00;;
19798;SDS011;10059;59.850;10.454;2023-07-20T08:31:16;0.03;;;0.00;;
19798;SDS011;10059;59.850;10.454;2023-07-20T08:33:43;0.93;;;0.00;;
19798;SDS011;10059;59.850;10.454;2023-07-20T08:36:10;0.10;;;0.00;;
19798;SDS011;10059;59.850;10.454;2023-07-20T08:38:37;0.00;;;0.00;;
19798;SDS011;10059;59.850;10.454;2023-07-20T08:41:05;0.00;;;0.00;;
19798;SDS011;10059;59.850;10.454;2023-07-20T08:43:32;0.00;;;0.00;;
19798;SDS011;10059;59.850;10.454;2023-07-20T08:46:00;0.97;;;0.03;;
19798;SDS011;10059;59.850;10.454;2023-07-20T08:48:28;0.00;;;0.00;;
19798;SDS011;10059;59.850;10.454;2023-07-20T08:50:57;0.00;;;0.00;;
19798;SDS011;10059;59.850;10.454;2023-07-20T08:53:25;1.23;;;0.03;;
19798;SDS011;10059;59.850;10.454;2023-07-20T08:55:53;0.00;;;0.00;;
19798;SDS011;10059;59.850;10.454;2023-07-20T08:58:21;0.30;;;0.00;;
19798;SDS011;10059;59.850;10.454;2023-07-20T09:00:51;0.00;;;0.00;;
19798;SDS011;10059;59.850;10.454;2023-07-20T09:03:19;0.00;;;0.00;;
19798;SDS011;10059;59.850;10.454;2023-07-20T09:05:46;0.07;;;0.00;;
19798;SDS011;10059;59.850;10.454;2023-07-20T09:08:13;0.20;;;0.00;;
19798;SDS011;10059;59.850;10.454;2023-07-20T09:10:40;0.00;;;0.00;;
19798;SDS011;10059;59.850;10.454;2023-07-20T09:13:06;0.00;;;0.00;;
19798;SDS011;10059;59.850;10.454;2023-07-20T09:15:35;0.33;;;0.00;;
19798;SDS011;10059;59.850;10.454;2023-07-20T09:18:02;0.00;;;0.00;;
19798;SDS011;10059;59.850;10.454;2023-07-20T09:20:30;0.00;;;0.00;;
19798;SDS011;10059;59.850;10.454;2023-07-20T09:22:59;0.00;;;0.00;;
19798;SDS011;10059;59.850;10.454;2023-07-20T09:25:26;0.20;;;0.00;;
19798;SDS011;10059;59.850;10.454;2023-07-20T09:27:53;0.03;;;0.00;;
19798;SDS011;10059;59.850;10.454;2023-07-20T09:30:21;0.10;;;0.00;;
19798;SDS011;10059;59.850;10.454;2023-07-20T09:32:53;0.53;;;0.07;;
19798;SDS011;10059;59.850;10.454;2023-07-20T09:35:20;0.10;;;0.00;;
19798;SDS011;10059;59.850;10.454;2023-07-20T09:37:49;0.10;;;0.10;;
19798;SDS011;10059;59.850;10.454;2023-07-20T09:40:18;3.27;;;0.20;;
19798;SDS011;10059;59.850;10.454;2023-07-20T09:42:46;0.00;;;0.00;;
19798;SDS011;10059;59.850;10.454;2023-07-20T09:45:13;0.07;;;0.00;;
19798;SDS011;10059;59.850;10.454;2023-07-20T09:47:40;0.20;;;0.10;;
19798;SDS011;10059;59.850;10.454;2023-07-20T09:50:09;0.20;;;0.00;;
19798;SDS011;10059;59.850;10.454;2023-07-20T09:52:40;1.27;;;0.10;;
19798;SDS011;10059;59.850;10.454;2023-07-20T09:55:09;0.40;;;0.00;;
19798;SDS011;10059;59.850;10.454;2023-07-20T09:57:37;0.00;;;0.00;;
19798;SDS011;10059;59.850;10.454;2023-07-20T10:00:05;0.00;;;0.00;;
19798;SDS011;10059;59.850;10.454;2023-07-20T10:02:42;0.03;;;0.00;;
19798;SDS011;10059;59.850;10.454;2023-07-20T10:05:12;0.00;;;0.00;;
19798;SDS011;10059;59.850;10.454;2023-07-20T10:07:43;0.07;;;0.00;;
19798;SDS011;10059;59.850;10.454;2023-07-20T10:10:13;0.60;;;0.00;;
19798;SDS011;10059;59.850;10.454;2023-07-20T10:12:42;1.57;;;0.07;;
19798;SDS011;10059;59.850;10.454;2023-07-20T10:15:11;0.77;;;0.00;;
19798;SDS011;10059;59.850;10.454;2023-07-20T10:17:43;0.73;;;0.07;;
19798;SDS011;10059;59.850;10.454;2023-07-20T10:20:27;0.77;;;0.00;;
19798;SDS011;10059;59.850;10.454;2023-07-20T10:22:54;0.00;;;0.00;;
19798;SDS011;10059;59.850;10.454;2023-07-20T10:25:23;0.10;;;0.00;;
19798;SDS011;10059;59.850;10.454;2023-07-20T10:27:50;1.07;;;0.00;;
19798;SDS011;10059;59.850;10.454;2023-07-20T10:30:17;0.00;;;0.00;;
19798;SDS011;10059;59.850;10.454;2023-07-20T10:32:45;0.00;;;0.00;;
19798;SDS011;10059;59.850;10.454;2023-07-20T10:35:13;0.27;;;0.10;;
19798;SDS011;10059;59.850;10.454;2023-07-20T10:37:52;0.00;;;0.00;;
19798;SDS011;10059;59.850;10.454;2023-07-20T10:40:26;0.13;;;0.00;;
19798;SDS011;10059;59.850;10.454;2023-07-20T10:42:57;0.00;;;0.00;;
19798;SDS011;10059;59.850;10.454;2023-07-20T10:45:35;0.30;;;0.00;;
19798;SDS011;10059;59.850;10.454;2023-07-20T10:48:03;0.00;;;0.00;;
19798;SDS011;10059;59.850;10.454;2023-07-20T10:50:31;0.00;;;0.00;;
19798;SDS011;10059;59.850;10.454;2023-07-20T10:53:06;0.50;;;0.03;;
19798;SDS011;10059;59.850;10.454;2023-07-20T10:55:37;0.20;;;0.00;;
19798;SDS011;10059;59.850;10.454;2023-07-20T10:58:07;0.93;;;0.20;;
19798;SDS011;10059;59.850;10.454;2023-07-20T11:00:36;0.00;;;0.00;;
19798;SDS011;10059;59.850;10.454;2023-07-20T11:03:04;0.00;;;0.00;;
19798;SDS011;10059;59.850;10.454;2023-07-20T11:05:37;0.80;;;0.00;;
19798;SDS011;10059;59.850;10.454;2023-07-20T11:08:09;0.20;;;0.07;;
19798;SDS011;10059;59.850;10.454;2023-07-20T11:10:37;0.00;;;0.00;;
19798;SDS011;10059;59.850;10.454;2023-07-20T11:13:21;0.97;;;0.07;;
19798;SDS011;10059;59.850;10.454;2023-07-20T11:16:01;0.10;;;0.00;;
19798;SDS011;10059;59.850;10.454;2023-07-20T11:18:30;0.10;;;0.00;;
19798;SDS011;10059;59.850;10.454;2023-07-20T11:21:00;0.50;;;0.07;;
19798;SDS011;10059;59.850;10.454;2023-07-20T11:23:30;1.23;;;0.00;;
19798;SDS011;10059;59.850;10.454;2023-07-20T11:25:58;0.63;;;0.00;;
19798;SDS011;10059;59.850;10.454;2023-07-20T11:28:25;0.10;;;0.00;;
19798;SDS011;10059;59.850;10.454;2023-07-20T11:30:52;0.00;;;0.00;;
19798;SDS011;10059;59.850;10.454;2023-07-20T11:33:19;0.00;;;0.00;;
19798;SDS011;10059;59.850;10.454;2023-07-20T11:35:48;2.77;;;0.10;;
19798;SDS011;10059;59.850;10.454;2023-07-20T11:38:16;0.10;;;0.07;;
19798;SDS011;10059;59.850;10.454;2023-07-20T11:40:44;0.00;;;0.00;;
19798;SDS011;10059;59.850;10.454;2023-07-20T11:43:13;0.53;;;0.10;;
19798;SDS011;10059;59.850;10.454;2023-07-20T11:45:40;0.00;;;0.00;;
19798;SDS011;10059;59.850;10.454;2023-07-20T11:48:13;0.10;;;0.00;;
19798;SDS011;10059;59.850;10.454;2023-07-20T11:50:41;0.00;;;0.00;;
19798;SDS011;10059;59.850;10.454;2023-07-20T11:53:07;0.30;;;0.00;;
19798;SDS011;10059;59.850;10.454;2023-07-20T11:55:35;0.00;;;0.00;;
19798;SDS011;10059;59.850;10.454;2023-07-20T11:58:05;0.63;;;0.10;;
19798;SDS011;10059;59.850;10.454;2023-07-20T12:00:32;0.43;;;0.00;;
19798;SDS011;10059;59.850;10.454;2023-07-20T12:03:00;1.23;;;0.00;;
19798;SDS011;10059;59.850;10.454;2023-07-20T12:05:27;0.00;;;0.00;;
19798;SDS011;10059;59.850;10.454;2023-07-20T12:07:54;0.50;;;0.10;;
19798;SDS011;10059;59.850;10.454;2023-07-20T12:10:24;0.07;;;0.00;;
19798;SDS011;10059;59.850;10.454;2023-07-20T12:12:52;0.00;;;0.00;;
19798;SDS011;10059;59.850;10.454;2023-07-20T12:15:21;0.37;;;0.00;;
19798;SDS011;10059;59.850;10.454;2023-07-20T12:17:49;0.27;;;0.00;;
19798;SDS011;10059;59.850;10.454;2023-07-20T12:20:27;0.23;;;0.10;;
19798;SDS011;10059;59.850;10.454;2023-07-20T12:22:56;0.27;;;0.00;;
19798;SDS011;10059;59.850;10.454;2023-07-20T12:25:39;0.60;;;0.00;;
19798;SDS011;10059;59.850;10.454;2023-07-20T12:28:07;0.10;;;0.03;;
19798;SDS011;10059;59.850;10.454;2023-07-20T12:30:36;0.27;;;0.00;;
19798;SDS011;10059;59.850;10.454;2023-07-20T12:33:03;0.00;;;0.00;;
19798;SDS011;10059;59.850;10.454;2023-07-20T12:35:30;0.57;;;0.00;;
19798;SDS011;10059;59.850;10.454;2023-07-20T12:37:58;0.10;;;0.00;;
19798;SDS011;10059;59.850;10.454;2023-07-20T12:40:25;0.00;;;0.00;;
19798;SDS011;10059;59.850;10.454;2023-07-20T12:42:52;2.00;;;0.00;;
19798;SDS011;10059;59.850;10.454;2023-07-20T12:45:19;0.37;;;0.10;;
19798;SDS011;10059;59.850;10.454;2023-07-20T12:47:47;0.10;;;0.10;;
19798;SDS011;10059;59.850;10.454;2023-07-20T12:50:14;0.10;;;0.10;;
19798;SDS011;10059;59.850;10.454;2023-07-20T12:52:41;1.70;;;0.10;;
19798;SDS011;10059;59.850;10.454;2023-07-20T12:55:08;0.17;;;0.10;;
19798;SDS011;10059;59.850;10.454;2023-07-20T12:57:36;1.50;;;0.20;;
19798;SDS011;10059;59.850;10.454;2023-07-20T13:00:04;0.67;;;0.10;;
19798;SDS011;10059;59.850;10.454;2023-07-20T13:02:33;0.40;;;0.10;;
19798;SDS011;10059;59.850;10.454;2023-07-20T13:05:02;0.30;;;0.10;;
19798;SDS011;10059;59.850;10.454;2023-07-20T13:07:30;0.67;;;0.10;;
19798;SDS011;10059;59.850;10.454;2023-07-20T13:09:57;0.90;;;0.20;;
19798;SDS011;10059;59.850;10.454;2023-07-20T13:12:25;0.70;;;0.10;;
19798;SDS011;10059;59.850;10.454;2023-07-20T13:14:52;0.20;;;0.10;;
19798;SDS011;10059;59.850;10.454;2023-07-20T13:17:20;0.73;;;0.10;;
19798;SDS011;10059;59.850;10.454;2023-07-20T13:19:47;1.33;;;0.10;;
19798;SDS011;10059;59.850;10.454;2023-07-20T13:22:15;1.57;;;0.20;;
19798;SDS011;10059;59.850;10.454;2023-07-20T13:24:43;0.27;;;0.20;;
19798;SDS011;10059;59.850;10.454;2023-07-20T13:27:11;0.97;;;0.20;;
19798;SDS011;10059;59.850;10.454;2023-07-20T13:29:38;1.03;;;0.27;;
19798;SDS011;10059;59.850;10.454;2023-07-20T13:32:05;0.20;;;0.10;;
19798;SDS011;10059;59.850;10.454;2023-07-20T13:34:33;0.40;;;0.20;;
19798;SDS011;10059;59.850;10.454;2023-07-20T13:37:00;0.10;;;0.00;;
19798;SDS011;10059;59.850;10.454;2023-07-20T13:39:28;0.60;;;0.10;;
19798;SDS011;10059;59.850;10.454;2023-07-20T13:41:55;0.40;;;0.10;;
19798;SDS011;10059;59.850;10.454;2023-07-20T13:44:22;0.17;;;0.10;;
19798;SDS011;10059;59.850;10.454;2023-07-20T13:46:49;0.10;;;0.10;;
19798;SDS011;10059;59.850;10.454;2023-07-20T13:49:16;0.23;;;0.10;;
19798;SDS011;10059;59.850;10.454;2023-07-20T13:51:43;0.43;;;0.13;;
19798;SDS011;10059;59.850;10.454;2023-07-20T13:54:10;0.17;;;0.10;;
19798;SDS011;10059;59.850;10.454;2023-07-20T13:56:38;1.23;;;0.20;;
19798;SDS011;10059;59.850;10.454;2023-07-20T13:59:05;0.20;;;0.10;;
19798;SDS011;10059;59.850;10.454;2023-07-20T14:01:32;0.10;;;0.10;;
19798;SDS011;10059;59.850;10.454;2023-07-20T14:03:59;0.40;;;0.10;;
19798;SDS011;10059;59.850;10.454;2023-07-20T14:06:29;0.53;;;0.10;;
19798;SDS011;10059;59.850;10.454;2023-07-20T14:08:56;0.23;;;0.10;;
19798;SDS011;10059;59.850;10.454;2023-07-20T14:11:23;0.20;;;0.10;;
19798;SDS011;10059;59.850;10.454;2023-07-20T14:13:52;0.03;;;0.00;;
19798;SDS011;10059;59.850;10.454;2023-07-20T14:16:19;0.10;;;0.03;;
19798;SDS011;10059;59.850;10.454;2023-07-20T14:18:47;0.10;;;0.10;;
19798;SDS011;10059;59.850;10.454;2023-07-20T14:21:14;0.53;;;0.10;;
19798;SDS011;10059;59.850;10.454;2023-07-20T14:23:40;1.53;;;0.10;;
19798;SDS011;10059;59.850;10.454;2023-07-20T14:26:07;0.07;;;0.00;;
19798;SDS011;10059;59.850;10.454;2023-07-20T14:28:34;0.03;;;0.03;;
19798;SDS011;10059;59.850;10.454;2023-07-20T14:31:02;1.33;;;0.00;;
19798;SDS011;10059;59.850;10.454;2023-07-20T14:33:30;0.20;;;0.10;;
19798;SDS011;10059;59.850;10.454;2023-07-20T14:35:57;0.53;;;0.20;;
19798;SDS011;10059;59.850;10.454;2023-07-20T14:38:24;0.40;;;0.10;;